sensor_id;sensor_type;location;lat;lon;timestamp;P1;durP1;ratioP1;P2;durP2;ratioP2
73452;SDS011;61687;56.232;43.854;2023-05-19T00:02:10;23.27;;;13.77;;
73452;SDS011;61687;56.232;43.854;2023-05-19T00:04:36;23.48;;;13.18;;
73452;SDS011;61687;56.232;43.854;2023-05-19T00:07:05;27.73;;;13.82;;
73452;SDS011;61687;56.232;43.854;2023-05-19T00:09:32;24.58;;;12.35;;
73452;SDS011;61687;56.232;43.854;2023-05-19T00:11:59;21.15;;;13.35;;
73452;SDS011;61687;56.232;43.854;2023-05-19T00:14:25;26.07;;;13.63;;
73452;SDS011;61687;56.232;43.854;2023-05-19T00:16:53;22.33;;;12.65;;
73452;SDS011;61687;56.232;43.854;2023-05-19T00:19:20;25.48;;;14.00;;
73452;SDS011;61687;56.232;43.854;2023-05-19T00:21:48;25.00;;;13.73;;
73452;SDS011;61687;56.232;43.854;2023-05-19T00:24:14;25.53;;;13.37;;
73452;SDS011;61687;56.232;43.854;2023-05-19T00:26:40;23.93;;;13.53;;
73452;SDS011;61687;56.232;43.854;2023-05-19T00:29:06;24.48;;;14.38;;
73452;SDS011;61687;56.232;43.854;2023-05-19T00:31:32;24.40;;;12.77;;
73452;SDS011;61687;56.232;43.854;2023-05-19T00:34:00;27.23;;;13.43;;
73452;SDS011;61687;56.232;43.854;2023-05-19T00:36:26;23.85;;;13.02;;
73452;SDS011;61687;56.232;43.854;2023-05-19T00:38:52;30.07;;;13.73;;
73452;SDS011;61687;56.232;43.854;2023-05-19T00:41:18;23.50;;;13.02;;
73452;SDS011;61687;56.232;43.854;2023-05-19T00:43:44;26.08;;;13.45;;
73452;SDS011;61687;56.232;43.854;2023-05-19T00:46:10;26.90;;;13.00;;
73452;SDS011;61687;56.232;43.854;2023-05-19T00:48:36;25.80;;;12.73;;
73452;SDS011;61687;56.232;43.854;2023-05-19T00:51:02;27.50;;;13.15;;
73452;SDS011;61687;56.232;43.854;2023-05-19T00:53:31;22.48;;;13.18;;
73452;SDS011;61687;56.232;43.854;2023-05-19T00:55:59;28.05;;;12.63;;
73452;SDS011;61687;56.232;43.854;2023-05-19T00:58:26;28.00;;;12.47;;
73452;SDS011;61687;56.232;43.854;2023-05-19T01:00:57;22.88;;;12.55;;
73452;SDS011;61687;56.232;43.854;2023-05-19T01:03:32;24.75;;;12.50;;
73452;SDS011;61687;56.232;43.854;2023-05-19T01:06:00;22.25;;;12.35;;
73452;SDS011;61687;56.232;43.854;2023-05-19T01:08:35;25.70;;;12.65;;
73452;SDS011;61687;56.232;43.854;2023-05-19T01:11:03;23.67;;;12.70;;
73452;SDS011;61687;56.232;43.854;2023-05-19T01:13:30;20.15;;;12.07;;
73452;SDS011;61687;56.232;43.854;2023-05-19T01:16:04;22.58;;;12.55;;
73452;SDS011;61687;56.232;43.854;2023-05-19T01:33:00;21.63;;;12.27;;
73452;SDS011;61687;56.232;43.854;2023-05-19T01:35:27;20.40;;;11.32;;
73452;SDS011;61687;56.232;43.854;2023-05-19T01:37:57;21.60;;;12.27;;
73452;SDS011;61687;56.232;43.854;2023-05-19T01:40:25;23.17;;;12.63;;
73452;SDS011;61687;56.232;43.854;2023-05-19T01:42:53;26.73;;;12.68;;
73452;SDS011;61687;56.232;43.854;2023-05-19T01:45:21;28.10;;;13.38;;
73452;SDS011;61687;56.232;43.854;2023-05-19T01:47:50;22.20;;;12.20;;
73452;SDS011;61687;56.232;43.854;2023-05-19T01:50:19;29.20;;;13.03;;
73452;SDS011;61687;56.232;43.854;2023-05-19T01:52:45;22.90;;;12.25;;
73452;SDS011;61687;56.232;43.854;2023-05-19T01:55:11;26.25;;;12.23;;
73452;SDS011;61687;56.232;43.854;2023-05-19T02:00:09;25.90;;;12.80;;
73452;SDS011;61687;56.232;43.854;2023-05-19T02:06:07;21.08;;;11.75;;
73452;SDS011;61687;56.232;43.854;2023-05-19T02:14:23;28.13;;;11.67;;
73452;SDS011;61687;56.232;43.854;2023-05-19T02:17:05;24.55;;;12.20;;
73452;SDS011;61687;56.232;43.854;2023-05-19T02:19:36;26.80;;;13.43;;
73452;SDS011;61687;56.232;43.854;2023-05-19T02:22:03;29.20;;;11.82;;
73452;SDS011;61687;56.232;43.854;2023-05-19T02:24:29;21.30;;;11.48;;
73452;SDS011;61687;56.232;43.854;2023-05-19T02:26:58;23.67;;;12.20;;
73452;SDS011;61687;56.232;43.854;2023-05-19T02:29:24;30.73;;;13.40;;
73452;SDS011;61687;56.232;43.854;2023-05-19T02:31:50;25.90;;;13.43;;
73452;SDS011;61687;56.232;43.854;2023-05-19T02:34:17;27.20;;;13.07;;
73452;SDS011;61687;56.232;43.854;2023-05-19T02:36:43;22.52;;;12.00;;
73452;SDS011;61687;56.232;43.854;2023-05-19T02:39:10;23.40;;;13.47;;
73452;SDS011;61687;56.232;43.854;2023-05-19T02:41:36;28.80;;;13.20;;
73452;SDS011;61687;56.232;43.854;2023-05-19T02:44:03;25.67;;;13.30;;
73452;SDS011;61687;56.232;43.854;2023-05-19T02:46:30;25.23;;;13.02;;
73452;SDS011;61687;56.232;43.854;2023-05-19T02:48:56;22.92;;;12.57;;
73452;SDS011;61687;56.232;43.854;2023-05-19T02:51:22;20.23;;;10.60;;
73452;SDS011;61687;56.232;43.854;2023-05-19T02:53:48;22.17;;;11.05;;
73452;SDS011;61687;56.232;43.854;2023-05-19T02:56:15;24.95;;;10.80;;
73452;SDS011;61687;56.232;43.854;2023-05-19T02:58:41;25.98;;;11.13;;
73452;SDS011;61687;56.232;43.854;2023-05-19T03:01:08;23.20;;;11.17;;
73452;SDS011;61687;56.232;43.854;2023-05-19T03:03:35;23.20;;;10.27;;
73452;SDS011;61687;56.232;43.854;2023-05-19T03:06:01;20.23;;;10.85;;
73452;SDS011;61687;56.232;43.854;2023-05-19T03:08:27;24.98;;;9.70;;
73452;SDS011;61687;56.232;43.854;2023-05-19T03:10:53;17.30;;;9.98;;
73452;SDS011;61687;56.232;43.854;2023-05-19T03:13:19;18.10;;;9.27;;
73452;SDS011;61687;56.232;43.854;2023-05-19T03:15:45;20.52;;;10.50;;
73452;SDS011;61687;56.232;43.854;2023-05-19T03:18:11;17.05;;;9.25;;
73452;SDS011;61687;56.232;43.854;2023-05-19T03:20:37;15.57;;;9.13;;
73452;SDS011;61687;56.232;43.854;2023-05-19T03:23:04;15.45;;;9.25;;
73452;SDS011;61687;56.232;43.854;2023-05-19T03:25:30;15.97;;;8.90;;
73452;SDS011;61687;56.232;43.854;2023-05-19T03:27:57;15.57;;;9.63;;
73452;SDS011;61687;56.232;43.854;2023-05-19T03:30:23;16.42;;;9.30;;
73452;SDS011;61687;56.232;43.854;2023-05-19T03:33:05;15.52;;;9.25;;
73452;SDS011;61687;56.232;43.854;2023-05-19T03:35:31;16.13;;;9.30;;
73452;SDS011;61687;56.232;43.854;2023-05-19T03:37:57;16.43;;;7.93;;
73452;SDS011;61687;56.232;43.854;2023-05-19T03:40:24;18.60;;;8.73;;
73452;SDS011;61687;56.232;43.854;2023-05-19T03:42:56;14.75;;;8.30;;
73452;SDS011;61687;56.232;43.854;2023-05-19T03:45:22;15.85;;;8.32;;
73452;SDS011;61687;56.232;43.854;2023-05-19T03:47:50;12.55;;;8.95;;
73452;SDS011;61687;56.232;43.854;2023-05-19T03:50:51;12.87;;;8.57;;
73452;SDS011;61687;56.232;43.854;2023-05-19T03:53:22;14.30;;;8.95;;
73452;SDS011;61687;56.232;43.854;2023-05-19T03:55:48;15.52;;;8.77;;
73452;SDS011;61687;56.232;43.854;2023-05-19T03:58:15;16.98;;;9.45;;
73452;SDS011;61687;56.232;43.854;2023-05-19T04:00:41;17.75;;;9.90;;
73452;SDS011;61687;56.232;43.854;2023-05-19T04:03:07;21.07;;;11.40;;
73452;SDS011;61687;56.232;43.854;2023-05-19T04:05:33;17.23;;;9.93;;
73452;SDS011;61687;56.232;43.854;2023-05-19T04:07:59;24.73;;;11.15;;
73452;SDS011;61687;56.232;43.854;2023-05-19T04:10:25;21.05;;;11.25;;
73452;SDS011;61687;56.232;43.854;2023-05-19T04:12:53;24.47;;;11.07;;
73452;SDS011;61687;56.232;43.854;2023-05-19T04:15:19;21.88;;;11.32;;
73452;SDS011;61687;56.232;43.854;2023-05-19T04:17:45;22.23;;;12.98;;
73452;SDS011;61687;56.232;43.854;2023-05-19T04:20:12;24.15;;;12.57;;
73452;SDS011;61687;56.232;43.854;2023-05-19T04:22:38;24.20;;;13.88;;
73452;SDS011;61687;56.232;43.854;2023-05-19T04:25:04;23.23;;;13.17;;
73452;SDS011;61687;56.232;43.854;2023-05-19T04:27:32;22.52;;;13.45;;
73452;SDS011;61687;56.232;43.854;2023-05-19T04:30:01;23.38;;;12.63;;
73452;SDS011;61687;56.232;43.854;2023-05-19T04:32:31;21.25;;;12.48;;
73452;SDS011;61687;56.232;43.854;2023-05-19T04:34:57;27.17;;;13.93;;
73452;SDS011;61687;56.232;43.854;2023-05-19T04:37:26;20.90;;;13.10;;
73452;SDS011;61687;56.232;43.854;2023-05-19T04:39:52;21.35;;;13.15;;
73452;SDS011;61687;56.232;43.854;2023-05-19T04:42:21;24.80;;;13.35;;
73452;SDS011;61687;56.232;43.854;2023-05-19T04:44:51;21.05;;;12.90;;
73452;SDS011;61687;56.232;43.854;2023-05-19T04:47:18;23.85;;;11.50;;
73452;SDS011;61687;56.232;43.854;2023-05-19T04:49:46;25.03;;;11.67;;
73452;SDS011;61687;56.232;43.854;2023-05-19T04:52:13;18.67;;;12.15;;
73452;SDS011;61687;56.232;43.854;2023-05-19T04:54:39;19.33;;;12.85;;
73452;SDS011;61687;56.232;43.854;2023-05-19T04:57:07;29.77;;;14.30;;
73452;SDS011;61687;56.232;43.854;2023-05-19T04:59:37;25.10;;;13.95;;
73452;SDS011;61687;56.232;43.854;2023-05-19T05:02:05;29.70;;;13.80;;
73452;SDS011;61687;56.232;43.854;2023-05-19T05:04:31;26.40;;;14.98;;
73452;SDS011;61687;56.232;43.854;2023-05-19T05:06:58;24.95;;;15.27;;
73452;SDS011;61687;56.232;43.854;2023-05-19T05:09:24;24.45;;;16.15;;
73452;SDS011;61687;56.232;43.854;2023-05-19T05:11:50;26.08;;;17.10;;
73452;SDS011;61687;56.232;43.854;2023-05-19T05:14:18;26.50;;;17.43;;
73452;SDS011;61687;56.232;43.854;2023-05-19T05:16:45;26.20;;;15.80;;
73452;SDS011;61687;56.232;43.854;2023-05-19T05:19:16;29.25;;;17.73;;
73452;SDS011;61687;56.232;43.854;2023-05-19T05:21:42;27.25;;;17.42;;
73452;SDS011;61687;56.232;43.854;2023-05-19T05:24:09;30.98;;;16.30;;
73452;SDS011;61687;56.232;43.854;2023-05-19T05:26:36;26.73;;;15.23;;
73452;SDS011;61687;56.232;43.854;2023-05-19T05:29:03;27.20;;;13.57;;
73452;SDS011;61687;56.232;43.854;2023-05-19T05:31:29;19.65;;;14.00;;
73452;SDS011;61687;56.232;43.854;2023-05-19T05:33:56;26.25;;;15.45;;
73452;SDS011;61687;56.232;43.854;2023-05-19T05:36:26;29.15;;;15.60;;
73452;SDS011;61687;56.232;43.854;2023-05-19T05:38:52;32.70;;;17.07;;
73452;SDS011;61687;56.232;43.854;2023-05-19T05:41:18;33.63;;;16.88;;
73452;SDS011;61687;56.232;43.854;2023-05-19T05:43:46;32.08;;;17.67;;
73452;SDS011;61687;56.232;43.854;2023-05-19T05:46:12;30.27;;;19.13;;
73452;SDS011;61687;56.232;43.854;2023-05-19T05:48:39;38.53;;;19.13;;
73452;SDS011;61687;56.232;43.854;2023-05-19T05:51:07;28.50;;;18.30;;
73452;SDS011;61687;56.232;43.854;2023-05-19T05:53:35;34.80;;;19.05;;
73452;SDS011;61687;56.232;43.854;2023-05-19T05:56:07;30.33;;;18.52;;
73452;SDS011;61687;56.232;43.854;2023-05-19T05:58:41;32.05;;;18.30;;
73452;SDS011;61687;56.232;43.854;2023-05-19T06:01:09;32.08;;;17.50;;
73452;SDS011;61687;56.232;43.854;2023-05-19T06:03:38;35.93;;;16.63;;
73452;SDS011;61687;56.232;43.854;2023-05-19T06:06:07;42.17;;;16.33;;
73452;SDS011;61687;56.232;43.854;2023-05-19T06:08:33;35.72;;;16.30;;
73452;SDS011;61687;56.232;43.854;2023-05-19T06:10:59;37.95;;;14.65;;
73452;SDS011;61687;56.232;43.854;2023-05-19T06:13:27;40.13;;;14.18;;
73452;SDS011;61687;56.232;43.854;2023-05-19T06:15:54;45.37;;;12.93;;
73452;SDS011;61687;56.232;43.854;2023-05-19T06:18:25;49.08;;;14.27;;
73452;SDS011;61687;56.232;43.854;2023-05-19T06:20:51;42.88;;;13.10;;
73452;SDS011;61687;56.232;43.854;2023-05-19T06:23:18;49.58;;;13.63;;
73452;SDS011;61687;56.232;43.854;2023-05-19T06:25:44;38.75;;;13.15;;
73452;SDS011;61687;56.232;43.854;2023-05-19T06:28:10;36.17;;;11.90;;
73452;SDS011;61687;56.232;43.854;2023-05-19T06:30:37;24.52;;;11.25;;
73452;SDS011;61687;56.232;43.854;2023-05-19T06:33:23;25.27;;;10.07;;
73452;SDS011;61687;56.232;43.854;2023-05-19T06:35:50;25.10;;;10.98;;
73452;SDS011;61687;56.232;43.854;2023-05-19T06:38:16;29.05;;;10.85;;
73452;SDS011;61687;56.232;43.854;2023-05-19T06:40:42;25.73;;;10.07;;
73452;SDS011;61687;56.232;43.854;2023-05-19T06:43:08;20.38;;;10.35;;
73452;SDS011;61687;56.232;43.854;2023-05-19T06:45:52;20.83;;;9.93;;
73452;SDS011;61687;56.232;43.854;2023-05-19T06:48:19;16.77;;;10.25;;
73452;SDS011;61687;56.232;43.854;2023-05-19T06:50:46;24.92;;;11.35;;
73452;SDS011;61687;56.232;43.854;2023-05-19T06:53:12;17.03;;;10.30;;
73452;SDS011;61687;56.232;43.854;2023-05-19T06:55:38;16.38;;;10.23;;
73452;SDS011;61687;56.232;43.854;2023-05-19T06:58:04;17.30;;;11.23;;
73452;SDS011;61687;56.232;43.854;2023-05-19T07:00:30;17.10;;;10.55;;
73452;SDS011;61687;56.232;43.854;2023-05-19T07:02:56;15.63;;;11.00;;
73452;SDS011;61687;56.232;43.854;2023-05-19T07:05:23;16.27;;;11.30;;
73452;SDS011;61687;56.232;43.854;2023-05-19T07:07:53;15.95;;;12.00;;
73452;SDS011;61687;56.232;43.854;2023-05-19T07:10:23;15.27;;;11.15;;
73452;SDS011;61687;56.232;43.854;2023-05-19T07:12:49;16.50;;;12.05;;
73452;SDS011;61687;56.232;43.854;2023-05-19T07:15:17;19.05;;;11.48;;
73452;SDS011;61687;56.232;43.854;2023-05-19T07:17:43;15.60;;;12.23;;
73452;SDS011;61687;56.232;43.854;2023-05-19T07:20:09;16.67;;;12.55;;
73452;SDS011;61687;56.232;43.854;2023-05-19T07:22:36;14.93;;;11.43;;
73452;SDS011;61687;56.232;43.854;2023-05-19T07:25:04;17.23;;;12.18;;
73452;SDS011;61687;56.232;43.854;2023-05-19T07:27:31;18.08;;;12.20;;
73452;SDS011;61687;56.232;43.854;2023-05-19T07:29:57;20.70;;;12.67;;
73452;SDS011;61687;56.232;43.854;2023-05-19T07:32:23;17.52;;;12.35;;
73452;SDS011;61687;56.232;43.854;2023-05-19T07:34:50;20.02;;;12.95;;
73452;SDS011;61687;56.232;43.854;2023-05-19T07:37:16;18.90;;;13.00;;
73452;SDS011;61687;56.232;43.854;2023-05-19T07:39:42;18.63;;;13.20;;
73452;SDS011;61687;56.232;43.854;2023-05-19T07:42:08;20.07;;;12.93;;
73452;SDS011;61687;56.232;43.854;2023-05-19T07:44:34;28.27;;;13.68;;
73452;SDS011;61687;56.232;43.854;2023-05-19T07:47:01;25.88;;;12.50;;
73452;SDS011;61687;56.232;43.854;2023-05-19T07:49:27;17.52;;;13.18;;
73452;SDS011;61687;56.232;43.854;2023-05-19T07:51:53;19.40;;;11.70;;
73452;SDS011;61687;56.232;43.854;2023-05-19T07:54:19;16.65;;;11.52;;
73452;SDS011;61687;56.232;43.854;2023-05-19T07:56:45;20.20;;;12.70;;
73452;SDS011;61687;56.232;43.854;2023-05-19T07:59:13;20.05;;;12.00;;
73452;SDS011;61687;56.232;43.854;2023-05-19T08:01:40;16.10;;;12.07;;
73452;SDS011;61687;56.232;43.854;2023-05-19T08:04:06;17.20;;;12.47;;
73452;SDS011;61687;56.232;43.854;2023-05-19T08:06:32;19.50;;;11.63;;
73452;SDS011;61687;56.232;43.854;2023-05-19T08:08:59;21.33;;;12.13;;
73452;SDS011;61687;56.232;43.854;2023-05-19T08:11:26;22.35;;;11.18;;
73452;SDS011;61687;56.232;43.854;2023-05-19T08:13:52;16.85;;;12.05;;
73452;SDS011;61687;56.232;43.854;2023-05-19T08:16:18;17.60;;;11.90;;
73452;SDS011;61687;56.232;43.854;2023-05-19T08:18:44;25.88;;;11.38;;
73452;SDS011;61687;56.232;43.854;2023-05-19T08:21:11;22.65;;;11.43;;
73452;SDS011;61687;56.232;43.854;2023-05-19T08:23:37;18.58;;;12.00;;
73452;SDS011;61687;56.232;43.854;2023-05-19T08:26:03;26.77;;;11.65;;
73452;SDS011;61687;56.232;43.854;2023-05-19T08:28:30;27.70;;;10.53;;
73452;SDS011;61687;56.232;43.854;2023-05-19T08:30:56;17.30;;;10.15;;
73452;SDS011;61687;56.232;43.854;2023-05-19T08:33:22;23.88;;;11.30;;
73452;SDS011;61687;56.232;43.854;2023-05-19T08:35:48;14.55;;;9.85;;
73452;SDS011;61687;56.232;43.854;2023-05-19T08:38:14;22.55;;;10.85;;
73452;SDS011;61687;56.232;43.854;2023-05-19T08:40:41;19.77;;;10.13;;
73452;SDS011;61687;56.232;43.854;2023-05-19T08:43:07;14.50;;;10.57;;
73452;SDS011;61687;56.232;43.854;2023-05-19T08:45:35;20.25;;;10.25;;
73452;SDS011;61687;56.232;43.854;2023-05-19T08:48:04;21.40;;;10.18;;
73452;SDS011;61687;56.232;43.854;2023-05-19T08:50:31;22.80;;;10.40;;
73452;SDS011;61687;56.232;43.854;2023-05-19T08:53:07;15.30;;;10.20;;
73452;SDS011;61687;56.232;43.854;2023-05-19T08:55:40;22.08;;;10.43;;
73452;SDS011;61687;56.232;43.854;2023-05-19T08:58:12;22.88;;;10.48;;
73452;SDS011;61687;56.232;43.854;2023-05-19T09:00:41;17.38;;;10.13;;
73452;SDS011;61687;56.232;43.854;2023-05-19T09:03:08;18.90;;;10.55;;
73452;SDS011;61687;56.232;43.854;2023-05-19T09:05:34;22.37;;;11.13;;
73452;SDS011;61687;56.232;43.854;2023-05-19T09:08:00;18.50;;;10.98;;
73452;SDS011;61687;56.232;43.854;2023-05-19T09:10:29;17.73;;;10.05;;
73452;SDS011;61687;56.232;43.854;2023-05-19T09:12:55;17.13;;;10.82;;
73452;SDS011;61687;56.232;43.854;2023-05-19T09:15:21;19.98;;;10.95;;
73452;SDS011;61687;56.232;43.854;2023-05-19T09:18:02;23.63;;;11.00;;
73452;SDS011;61687;56.232;43.854;2023-05-19T09:20:31;21.00;;;10.63;;
73452;SDS011;61687;56.232;43.854;2023-05-19T09:22:57;22.60;;;10.57;;
73452;SDS011;61687;56.232;43.854;2023-05-19T09:25:24;18.13;;;11.30;;
73452;SDS011;61687;56.232;43.854;2023-05-19T09:27:50;16.35;;;11.65;;
73452;SDS011;61687;56.232;43.854;2023-05-19T09:30:18;20.53;;;10.60;;
73452;SDS011;61687;56.232;43.854;2023-05-19T09:32:45;20.58;;;11.10;;
73452;SDS011;61687;56.232;43.854;2023-05-19T09:35:12;18.08;;;11.00;;
73452;SDS011;61687;56.232;43.854;2023-05-19T09:37:42;25.83;;;11.43;;
73452;SDS011;61687;56.232;43.854;2023-05-19T09:40:08;16.25;;;10.00;;
73452;SDS011;61687;56.232;43.854;2023-05-19T09:42:37;17.07;;;11.13;;
73452;SDS011;61687;56.232;43.854;2023-05-19T09:45:05;17.40;;;11.40;;
73452;SDS011;61687;56.232;43.854;2023-05-19T09:47:34;22.73;;;10.50;;
73452;SDS011;61687;56.232;43.854;2023-05-19T09:50:07;21.63;;;10.18;;
73452;SDS011;61687;56.232;43.854;2023-05-19T09:52:42;17.70;;;11.00;;
73452;SDS011;61687;56.232;43.854;2023-05-19T09:55:09;16.23;;;10.30;;
73452;SDS011;61687;56.232;43.854;2023-05-19T09:57:38;18.50;;;10.85;;
73452;SDS011;61687;56.232;43.854;2023-05-19T10:00:05;15.57;;;9.80;;
73452;SDS011;61687;56.232;43.854;2023-05-19T10:02:43;17.77;;;10.70;;
73452;SDS011;61687;56.232;43.854;2023-05-19T10:05:11;32.00;;;9.90;;
73452;SDS011;61687;56.232;43.854;2023-05-19T10:07:47;15.90;;;10.17;;
73452;SDS011;61687;56.232;43.854;2023-05-19T10:10:16;17.98;;;9.50;;
73452;SDS011;61687;56.232;43.854;2023-05-19T10:12:49;15.57;;;8.65;;
73452;SDS011;61687;56.232;43.854;2023-05-19T10:15:16;19.02;;;9.43;;
73452;SDS011;61687;56.232;43.854;2023-05-19T10:17:44;17.40;;;8.10;;
73452;SDS011;61687;56.232;43.854;2023-05-19T10:20:14;23.07;;;8.27;;
73452;SDS011;61687;56.232;43.854;2023-05-19T10:22:42;23.67;;;8.80;;
73452;SDS011;61687;56.232;43.854;2023-05-19T10:25:10;19.98;;;8.18;;
73452;SDS011;61687;56.232;43.854;2023-05-19T10:27:41;19.48;;;8.48;;
73452;SDS011;61687;56.232;43.854;2023-05-19T10:30:19;19.77;;;8.00;;
73452;SDS011;61687;56.232;43.854;2023-05-19T10:33:08;15.43;;;8.07;;
73452;SDS011;61687;56.232;43.854;2023-05-19T10:47:36;14.20;;;7.27;;
73452;SDS011;61687;56.232;43.854;2023-05-19T10:50:05;19.33;;;7.40;;
73452;SDS011;61687;56.232;43.854;2023-05-19T10:52:35;13.43;;;8.30;;
73452;SDS011;61687;56.232;43.854;2023-05-19T10:55:03;12.88;;;7.35;;
73452;SDS011;61687;56.232;43.854;2023-05-19T10:57:33;9.65;;;7.28;;
73452;SDS011;61687;56.232;43.854;2023-05-19T11:00:04;12.57;;;7.80;;
73452;SDS011;61687;56.232;43.854;2023-05-19T11:02:52;14.00;;;7.40;;
73452;SDS011;61687;56.232;43.854;2023-05-19T11:05:27;15.30;;;7.50;;
73452;SDS011;61687;56.232;43.854;2023-05-19T11:07:55;30.88;;;8.13;;
73452;SDS011;61687;56.232;43.854;2023-05-19T11:10:29;16.80;;;7.53;;
73452;SDS011;61687;56.232;43.854;2023-05-19T11:12:58;14.57;;;7.40;;
73452;SDS011;61687;56.232;43.854;2023-05-19T11:15:25;18.58;;;7.40;;
73452;SDS011;61687;56.232;43.854;2023-05-19T11:17:53;12.05;;;7.13;;
73452;SDS011;61687;56.232;43.854;2023-05-19T11:20:26;11.13;;;7.47;;
73452;SDS011;61687;56.232;43.854;2023-05-19T11:25:42;18.30;;;7.30;;
73452;SDS011;61687;56.232;43.854;2023-05-19T11:28:16;18.77;;;7.40;;
73452;SDS011;61687;56.232;43.854;2023-05-19T11:30:44;18.17;;;8.35;;
73452;SDS011;61687;56.232;43.854;2023-05-19T11:33:14;17.42;;;7.75;;
73452;SDS011;61687;56.232;43.854;2023-05-19T11:35:47;18.10;;;8.40;;
73452;SDS011;61687;56.232;43.854;2023-05-19T11:38:15;15.80;;;7.67;;
73452;SDS011;61687;56.232;43.854;2023-05-19T11:40:43;13.98;;;7.35;;
73452;SDS011;61687;56.232;43.854;2023-05-19T11:43:10;15.35;;;7.55;;
73452;SDS011;61687;56.232;43.854;2023-05-19T11:45:36;13.63;;;7.97;;
73452;SDS011;61687;56.232;43.854;2023-05-19T11:48:03;15.25;;;8.82;;
73452;SDS011;61687;56.232;43.854;2023-05-19T11:50:30;13.77;;;8.50;;
73452;SDS011;61687;56.232;43.854;2023-05-19T11:52:58;16.33;;;8.50;;
73452;SDS011;61687;56.232;43.854;2023-05-19T11:55:25;18.00;;;8.43;;
73452;SDS011;61687;56.232;43.854;2023-05-19T12:00:26;15.35;;;10.05;;
73452;SDS011;61687;56.232;43.854;2023-05-19T12:02:54;15.27;;;9.10;;
73452;SDS011;61687;56.232;43.854;2023-05-19T12:05:22;16.48;;;9.60;;
73452;SDS011;61687;56.232;43.854;2023-05-19T12:07:49;16.17;;;9.48;;
73452;SDS011;61687;56.232;43.854;2023-05-19T12:10:26;19.45;;;8.85;;
73452;SDS011;61687;56.232;43.854;2023-05-19T12:12:55;18.15;;;9.43;;
73452;SDS011;61687;56.232;43.854;2023-05-19T12:15:23;12.33;;;9.07;;
73452;SDS011;61687;56.232;43.854;2023-05-19T12:17:50;15.77;;;9.60;;
73452;SDS011;61687;56.232;43.854;2023-05-19T12:20:24;16.65;;;8.85;;
73452;SDS011;61687;56.232;43.854;2023-05-19T12:22:51;16.88;;;9.40;;
73452;SDS011;61687;56.232;43.854;2023-05-19T12:25:19;17.05;;;8.00;;
73452;SDS011;61687;56.232;43.854;2023-05-19T12:27:46;16.53;;;8.33;;
73452;SDS011;61687;56.232;43.854;2023-05-19T12:30:17;25.67;;;8.23;;
73452;SDS011;61687;56.232;43.854;2023-05-19T12:32:49;16.13;;;8.63;;
73452;SDS011;61687;56.232;43.854;2023-05-19T12:35:17;16.63;;;7.82;;
73452;SDS011;61687;56.232;43.854;2023-05-19T12:37:44;19.73;;;8.27;;
73452;SDS011;61687;56.232;43.854;2023-05-19T12:40:14;14.37;;;7.40;;
73452;SDS011;61687;56.232;43.854;2023-05-19T12:42:44;16.52;;;7.65;;
73452;SDS011;61687;56.232;43.854;2023-05-19T12:45:10;11.27;;;6.70;;
73452;SDS011;61687;56.232;43.854;2023-05-19T12:47:36;17.45;;;7.78;;
73452;SDS011;61687;56.232;43.854;2023-05-19T12:52:33;16.27;;;6.93;;
73452;SDS011;61687;56.232;43.854;2023-05-19T12:55:09;39.97;;;7.90;;
73452;SDS011;61687;56.232;43.854;2023-05-19T12:57:40;12.88;;;7.35;;
73452;SDS011;61687;56.232;43.854;2023-05-19T13:00:14;10.50;;;6.78;;
73452;SDS011;61687;56.232;43.854;2023-05-19T13:02:54;8.77;;;5.95;;
73452;SDS011;61687;56.232;43.854;2023-05-19T13:05:22;12.10;;;6.37;;
73452;SDS011;61687;56.232;43.854;2023-05-19T13:07:53;9.63;;;6.25;;
73452;SDS011;61687;56.232;43.854;2023-05-19T13:10:20;16.20;;;6.68;;
73452;SDS011;61687;56.232;43.854;2023-05-19T13:12:46;13.35;;;6.38;;
73452;SDS011;61687;56.232;43.854;2023-05-19T13:15:12;11.83;;;5.50;;
73452;SDS011;61687;56.232;43.854;2023-05-19T13:17:38;13.27;;;5.32;;
73452;SDS011;61687;56.232;43.854;2023-05-19T13:20:04;13.05;;;5.00;;
73452;SDS011;61687;56.232;43.854;2023-05-19T13:22:30;9.40;;;4.50;;
73452;SDS011;61687;56.232;43.854;2023-05-19T13:24:57;10.37;;;4.60;;
73452;SDS011;61687;56.232;43.854;2023-05-19T13:27:24;8.27;;;4.00;;
73452;SDS011;61687;56.232;43.854;2023-05-19T13:29:50;7.25;;;4.47;;
73452;SDS011;61687;56.232;43.854;2023-05-19T13:32:16;10.40;;;3.50;;
73452;SDS011;61687;56.232;43.854;2023-05-19T13:34:42;10.13;;;4.65;;
73452;SDS011;61687;56.232;43.854;2023-05-19T13:37:08;11.60;;;4.17;;
73452;SDS011;61687;56.232;43.854;2023-05-19T13:39:36;7.35;;;3.90;;
73452;SDS011;61687;56.232;43.854;2023-05-19T13:42:02;6.97;;;3.45;;
73452;SDS011;61687;56.232;43.854;2023-05-19T13:44:29;6.65;;;4.00;;
73452;SDS011;61687;56.232;43.854;2023-05-19T13:46:55;8.13;;;3.85;;
73452;SDS011;61687;56.232;43.854;2023-05-19T13:49:21;8.53;;;4.00;;
73452;SDS011;61687;56.232;43.854;2023-05-19T13:51:47;10.73;;;3.75;;
73452;SDS011;61687;56.232;43.854;2023-05-19T13:54:14;14.80;;;3.88;;
73452;SDS011;61687;56.232;43.854;2023-05-19T13:56:40;11.93;;;3.58;;
73452;SDS011;61687;56.232;43.854;2023-05-19T13:59:07;6.30;;;3.30;;
73452;SDS011;61687;56.232;43.854;2023-05-19T14:01:33;14.50;;;3.70;;
73452;SDS011;61687;56.232;43.854;2023-05-19T14:03:59;6.53;;;2.73;;
73452;SDS011;61687;56.232;43.854;2023-05-19T14:06:25;9.07;;;2.95;;
73452;SDS011;61687;56.232;43.854;2023-05-19T14:08:52;8.45;;;3.53;;
73452;SDS011;61687;56.232;43.854;2023-05-19T14:11:18;6.82;;;2.67;;
73452;SDS011;61687;56.232;43.854;2023-05-19T14:13:49;6.80;;;2.58;;
73452;SDS011;61687;56.232;43.854;2023-05-19T14:16:18;7.77;;;3.27;;
73452;SDS011;61687;56.232;43.854;2023-05-19T14:18:48;7.75;;;2.50;;
73452;SDS011;61687;56.232;43.854;2023-05-19T14:21:14;8.32;;;2.50;;
73452;SDS011;61687;56.232;43.854;2023-05-19T14:23:40;7.88;;;2.83;;
73452;SDS011;61687;56.232;43.854;2023-05-19T14:26:06;5.05;;;2.53;;
73452;SDS011;61687;56.232;43.854;2023-05-19T14:28:32;7.13;;;2.17;;
73452;SDS011;61687;56.232;43.854;2023-05-19T14:30:58;8.27;;;2.65;;
73452;SDS011;61687;56.232;43.854;2023-05-19T14:33:24;13.23;;;2.53;;
73452;SDS011;61687;56.232;43.854;2023-05-19T14:35:50;6.38;;;2.20;;
73452;SDS011;61687;56.232;43.854;2023-05-19T14:38:16;7.67;;;2.70;;
73452;SDS011;61687;56.232;43.854;2023-05-19T14:40:43;4.28;;;2.33;;
73452;SDS011;61687;56.232;43.854;2023-05-19T14:43:09;5.60;;;2.67;;
73452;SDS011;61687;56.232;43.854;2023-05-19T14:45:39;9.23;;;2.05;;
73452;SDS011;61687;56.232;43.854;2023-05-19T14:48:06;6.07;;;2.33;;
73452;SDS011;61687;56.232;43.854;2023-05-19T14:50:33;5.80;;;2.33;;
73452;SDS011;61687;56.232;43.854;2023-05-19T14:52:59;4.97;;;2.10;;
73452;SDS011;61687;56.232;43.854;2023-05-19T14:55:24;5.70;;;2.47;;
73452;SDS011;61687;56.232;43.854;2023-05-19T14:57:50;7.00;;;2.63;;
73452;SDS011;61687;56.232;43.854;2023-05-19T15:00:16;8.40;;;2.43;;
73452;SDS011;61687;56.232;43.854;2023-05-19T15:02:43;4.20;;;2.50;;
73452;SDS011;61687;56.232;43.854;2023-05-19T15:05:09;4.20;;;1.88;;
73452;SDS011;61687;56.232;43.854;2023-05-19T15:07:36;4.22;;;2.22;;